sensor_id;sensor_type;location;lat;lon;timestamp;P1;durP1;ratioP1;P2;durP2;ratioP2
10957;SDS011;5531;42.570;23.676;2022-07-10T00:00:45;19.95;;;18.15;;
10957;SDS011;5531;42.570;23.676;2022-07-10T00:03:14;19.55;;;17.75;;
10957;SDS011;5531;42.570;23.676;2022-07-10T00:05:46;19.88;;;18.10;;
10957;SDS011;5531;42.570;23.676;2022-07-10T00:08:15;20.40;;;18.25;;
10957;SDS011;5531;42.570;23.676;2022-07-10T00:10:45;20.30;;;18.33;;
10957;SDS011;5531;42.570;23.676;2022-07-10T00:13:14;21.25;;;19.05;;
10957;SDS011;5531;42.570;23.676;2022-07-10T00:15:43;21.20;;;19.15;;
10957;SDS011;5531;42.570;23.676;2022-07-10T00:18:12;21.15;;;19.15;;
10957;SDS011;5531;42.570;23.676;2022-07-10T00:20:42;21.35;;;19.20;;
10957;SDS011;5531;42.570;23.676;2022-07-10T00:23:14;20.27;;;18.27;;
10957;SDS011;5531;42.570;23.676;2022-07-10T00:25:43;19.80;;;18.00;;
10957;SDS011;5531;42.570;23.676;2022-07-10T00:28:12;19.75;;;17.80;;
10957;SDS011;5531;42.570;23.676;2022-07-10T00:30:41;19.75;;;17.95;;
10957;SDS011;5531;42.570;23.676;2022-07-10T00:33:10;19.40;;;17.42;;
10957;SDS011;5531;42.570;23.676;2022-07-10T00:35:40;19.88;;;17.63;;
10957;SDS011;5531;42.570;23.676;2022-07-10T00:38:09;19.70;;;17.80;;
10957;SDS011;5531;42.570;23.676;2022-07-10T00:40:40;20.55;;;18.45;;
10957;SDS011;5531;42.570;23.676;2022-07-10T00:43:10;18.33;;;16.58;;
10957;SDS011;5531;42.570;23.676;2022-07-10T00:45:39;19.55;;;17.52;;
10957;SDS011;5531;42.570;23.676;2022-07-10T00:48:08;19.40;;;17.50;;
10957;SDS011;5531;42.570;23.676;2022-07-10T00:50:37;19.10;;;17.38;;
10957;SDS011;5531;42.570;23.676;2022-07-10T00:53:08;20.05;;;18.05;;
10957;SDS011;5531;42.570;23.676;2022-07-10T00:55:40;19.15;;;17.17;;
10957;SDS011;5531;42.570;23.676;2022-07-10T00:58:12;19.50;;;17.55;;
10957;SDS011;5531;42.570;23.676;2022-07-10T01:00:41;20.42;;;18.05;;
10957;SDS011;5531;42.570;23.676;2022-07-10T01:03:10;20.35;;;17.63;;
10957;SDS011;5531;42.570;23.676;2022-07-10T01:05:39;19.45;;;17.75;;
10957;SDS011;5531;42.570;23.676;2022-07-10T01:08:09;18.92;;;17.13;;
10957;SDS011;5531;42.570;23.676;2022-07-10T01:10:40;19.58;;;17.75;;
10957;SDS011;5531;42.570;23.676;2022-07-10T01:13:09;18.73;;;16.95;;
10957;SDS011;5531;42.570;23.676;2022-07-10T01:15:39;19.70;;;17.70;;
10957;SDS011;5531;42.570;23.676;2022-07-10T01:18:08;18.67;;;16.88;;
10957;SDS011;5531;42.570;23.676;2022-07-10T01:20:37;19.80;;;17.90;;
10957;SDS011;5531;42.570;23.676;2022-07-10T01:23:09;19.20;;;17.38;;
10957;SDS011;5531;42.570;23.676;2022-07-10T01:25:38;20.77;;;18.58;;
10957;SDS011;5531;42.570;23.676;2022-07-10T01:28:07;20.20;;;18.20;;
10957;SDS011;5531;42.570;23.676;2022-07-10T01:30:36;19.60;;;17.63;;
10957;SDS011;5531;42.570;23.676;2022-07-10T01:33:06;21.35;;;19.27;;
10957;SDS011;5531;42.570;23.676;2022-07-10T01:35:35;20.55;;;18.55;;
10957;SDS011;5531;42.570;23.676;2022-07-10T01:38:04;21.33;;;19.27;;
10957;SDS011;5531;42.570;23.676;2022-07-10T01:40:36;19.65;;;17.65;;
10957;SDS011;5531;42.570;23.676;2022-07-10T01:43:05;21.13;;;19.13;;
10957;SDS011;5531;42.570;23.676;2022-07-10T01:45:35;21.50;;;19.17;;
10957;SDS011;5531;42.570;23.676;2022-07-10T01:48:04;21.27;;;19.08;;
10957;SDS011;5531;42.570;23.676;2022-07-10T01:50:34;21.27;;;19.08;;
10957;SDS011;5531;42.570;23.676;2022-07-10T01:53:04;21.58;;;19.33;;
10957;SDS011;5531;42.570;23.676;2022-07-10T01:55:33;20.75;;;18.75;;
10957;SDS011;5531;42.570;23.676;2022-07-10T01:58:04;22.33;;;20.00;;
10957;SDS011;5531;42.570;23.676;2022-07-10T02:00:33;21.98;;;19.88;;
10957;SDS011;5531;42.570;23.676;2022-07-10T02:03:03;21.25;;;19.10;;
10957;SDS011;5531;42.570;23.676;2022-07-10T02:05:44;21.00;;;18.90;;
10957;SDS011;5531;42.570;23.676;2022-07-10T02:08:13;22.02;;;19.98;;
10957;SDS011;5531;42.570;23.676;2022-07-10T02:10:45;21.75;;;19.55;;
10957;SDS011;5531;42.570;23.676;2022-07-10T02:13:14;21.27;;;19.13;;
10957;SDS011;5531;42.570;23.676;2022-07-10T02:15:45;21.80;;;19.70;;
10957;SDS011;5531;42.570;23.676;2022-07-10T02:18:14;21.77;;;19.58;;
10957;SDS011;5531;42.570;23.676;2022-07-10T02:20:43;21.85;;;19.38;;
10957;SDS011;5531;42.570;23.676;2022-07-10T02:23:12;20.73;;;18.67;;
10957;SDS011;5531;42.570;23.676;2022-07-10T02:25:44;22.00;;;19.67;;
10957;SDS011;5531;42.570;23.676;2022-07-10T02:28:13;21.35;;;19.15;;
10957;SDS011;5531;42.570;23.676;2022-07-10T02:30:42;20.45;;;18.35;;
10957;SDS011;5531;42.570;23.676;2022-07-10T02:33:11;21.30;;;19.02;;
10957;SDS011;5531;42.570;23.676;2022-07-10T02:35:40;19.05;;;17.25;;
10957;SDS011;5531;42.570;23.676;2022-07-10T02:38:09;19.52;;;17.65;;
10957;SDS011;5531;42.570;23.676;2022-07-10T02:40:38;20.45;;;18.35;;
10957;SDS011;5531;42.570;23.676;2022-07-10T02:43:10;20.35;;;17.90;;
10957;SDS011;5531;42.570;23.676;2022-07-10T02:45:39;19.80;;;17.83;;
10957;SDS011;5531;42.570;23.676;2022-07-10T02:48:08;20.55;;;18.67;;
10957;SDS011;5531;42.570;23.676;2022-07-10T02:50:37;21.17;;;18.98;;
10957;SDS011;5531;42.570;23.676;2022-07-10T02:53:06;20.92;;;18.92;;
10957;SDS011;5531;42.570;23.676;2022-07-10T02:55:36;21.23;;;19.13;;
10957;SDS011;5531;42.570;23.676;2022-07-10T02:58:05;20.40;;;18.40;;
10957;SDS011;5531;42.570;23.676;2022-07-10T03:00:37;20.77;;;18.90;;
10957;SDS011;5531;42.570;23.676;2022-07-10T03:03:07;21.52;;;19.05;;
10957;SDS011;5531;42.570;23.676;2022-07-10T03:05:36;21.17;;;18.98;;
10957;SDS011;5531;42.570;23.676;2022-07-10T03:08:05;20.42;;;18.52;;
10957;SDS011;5531;42.570;23.676;2022-07-10T03:10:34;20.38;;;18.50;;
10957;SDS011;5531;42.570;23.676;2022-07-10T03:13:04;20.95;;;18.77;;
10957;SDS011;5531;42.570;23.676;2022-07-10T03:15:33;20.48;;;18.45;;
10957;SDS011;5531;42.570;23.676;2022-07-10T03:18:05;20.73;;;18.73;;
10957;SDS011;5531;42.570;23.676;2022-07-10T03:20:34;21.25;;;19.15;;
10957;SDS011;5531;42.570;23.676;2022-07-10T03:23:03;19.58;;;17.70;;
10957;SDS011;5531;42.570;23.676;2022-07-10T03:25:32;20.67;;;18.33;;
10957;SDS011;5531;42.570;23.676;2022-07-10T03:28:01;20.42;;;18.38;;
10957;SDS011;5531;42.570;23.676;2022-07-10T03:30:30;17.98;;;16.30;;
10957;SDS011;5531;42.570;23.676;2022-07-10T03:33:00;18.33;;;16.50;;
10957;SDS011;5531;42.570;23.676;2022-07-10T03:35:31;19.15;;;17.25;;
10957;SDS011;5531;42.570;23.676;2022-07-10T03:38:01;19.35;;;17.35;;
10957;SDS011;5531;42.570;23.676;2022-07-10T03:40:30;19.33;;;17.52;;
10957;SDS011;5531;42.570;23.676;2022-07-10T03:42:59;19.98;;;17.55;;
10957;SDS011;5531;42.570;23.676;2022-07-10T03:45:29;18.33;;;16.52;;
10957;SDS011;5531;42.570;23.676;2022-07-10T03:47:58;20.95;;;18.92;;
10957;SDS011;5531;42.570;23.676;2022-07-10T03:50:27;19.65;;;17.73;;
10957;SDS011;5531;42.570;23.676;2022-07-10T03:52:59;19.60;;;17.77;;
10957;SDS011;5531;42.570;23.676;2022-07-10T03:55:28;19.98;;;18.00;;
10957;SDS011;5531;42.570;23.676;2022-07-10T03:57:58;19.05;;;17.35;;
10957;SDS011;5531;42.570;23.676;2022-07-10T04:00:28;19.75;;;17.70;;
10957;SDS011;5531;42.570;23.676;2022-07-10T04:03:01;19.33;;;17.52;;
10957;SDS011;5531;42.570;23.676;2022-07-10T04:05:31;19.90;;;18.00;;
10957;SDS011;5531;42.570;23.676;2022-07-10T04:08:04;17.92;;;16.25;;
10957;SDS011;5531;42.570;23.676;2022-07-10T04:10:34;18.67;;;16.88;;
10957;SDS011;5531;42.570;23.676;2022-07-10T04:13:04;19.30;;;17.38;;
10957;SDS011;5531;42.570;23.676;2022-07-10T04:15:33;18.60;;;16.80;;
10957;SDS011;5531;42.570;23.676;2022-07-10T04:18:02;17.67;;;16.08;;
10957;SDS011;5531;42.570;23.676;2022-07-10T04:20:31;18.92;;;17.02;;
10957;SDS011;5531;42.570;23.676;2022-07-10T04:23:01;18.27;;;16.50;;
10957;SDS011;5531;42.570;23.676;2022-07-10T04:25:32;17.77;;;16.20;;
10957;SDS011;5531;42.570;23.676;2022-07-10T04:28:02;20.83;;;16.65;;
10957;SDS011;5531;42.570;23.676;2022-07-10T04:30:31;16.92;;;15.32;;
10957;SDS011;5531;42.570;23.676;2022-07-10T04:33:00;17.35;;;15.85;;
10957;SDS011;5531;42.570;23.676;2022-07-10T04:35:30;17.83;;;16.02;;
10957;SDS011;5531;42.570;23.676;2022-07-10T04:37:59;17.20;;;15.50;;
10957;SDS011;5531;42.570;23.676;2022-07-10T04:40:31;16.83;;;15.13;;
10957;SDS011;5531;42.570;23.676;2022-07-10T04:43:01;17.30;;;15.60;;
10957;SDS011;5531;42.570;23.676;2022-07-10T04:45:30;17.25;;;15.73;;
10957;SDS011;5531;42.570;23.676;2022-07-10T04:47:59;16.42;;;14.70;;
10957;SDS011;5531;42.570;23.676;2022-07-10T04:50:28;15.90;;;14.27;;
10957;SDS011;5531;42.570;23.676;2022-07-10T04:52:58;15.77;;;14.38;;
10957;SDS011;5531;42.570;23.676;2022-07-10T04:55:27;16.83;;;15.23;;
10957;SDS011;5531;42.570;23.676;2022-07-10T04:57:59;16.70;;;15.20;;
10957;SDS011;5531;42.570;23.676;2022-07-10T05:00:28;16.52;;;14.88;;
10957;SDS011;5531;42.570;23.676;2022-07-10T05:02:58;16.92;;;15.23;;
10957;SDS011;5531;42.570;23.676;2022-07-10T05:05:27;17.85;;;15.98;;
10957;SDS011;5531;42.570;23.676;2022-07-10T05:07:56;17.38;;;15.75;;
10957;SDS011;5531;42.570;23.676;2022-07-10T05:10:26;17.88;;;16.02;;
10957;SDS011;5531;42.570;23.676;2022-07-10T05:12:55;18.23;;;16.38;;
10957;SDS011;5531;42.570;23.676;2022-07-10T05:15:27;17.67;;;15.90;;
10957;SDS011;5531;42.570;23.676;2022-07-10T05:17:56;17.25;;;15.65;;
10957;SDS011;5531;42.570;23.676;2022-07-10T05:20:25;17.88;;;16.15;;
10957;SDS011;5531;42.570;23.676;2022-07-10T05:22:55;17.15;;;15.55;;
10957;SDS011;5531;42.570;23.676;2022-07-10T05:25:25;18.70;;;16.98;;
10957;SDS011;5531;42.570;23.676;2022-07-10T05:27:55;18.75;;;16.85;;
10957;SDS011;5531;42.570;23.676;2022-07-10T05:30:28;17.33;;;15.63;;
10957;SDS011;5531;42.570;23.676;2022-07-10T05:32:57;17.42;;;15.82;;
10957;SDS011;5531;42.570;23.676;2022-07-10T05:35:26;17.17;;;15.68;;
10957;SDS011;5531;42.570;23.676;2022-07-10T05:37:59;16.55;;;15.05;;
10957;SDS011;5531;42.570;23.676;2022-07-10T05:40:29;17.30;;;15.68;;
10957;SDS011;5531;42.570;23.676;2022-07-10T05:42:58;17.08;;;15.48;;
10957;SDS011;5531;42.570;23.676;2022-07-10T05:45:30;16.85;;;15.15;;
10957;SDS011;5531;42.570;23.676;2022-07-10T05:48:00;16.30;;;14.82;;
10957;SDS011;5531;42.570;23.676;2022-07-10T05:50:29;17.75;;;16.05;;
10957;SDS011;5531;42.570;23.676;2022-07-10T05:52:58;16.75;;;14.35;;
10957;SDS011;5531;42.570;23.676;2022-07-10T05:55:28;15.13;;;13.70;;
10957;SDS011;5531;42.570;23.676;2022-07-10T05:57:58;15.75;;;14.25;;
10957;SDS011;5531;42.570;23.676;2022-07-10T06:00:30;14.05;;;12.73;;
10957;SDS011;5531;42.570;23.676;2022-07-10T06:02:59;13.35;;;12.15;;
10957;SDS011;5531;42.570;23.676;2022-07-10T06:05:28;13.35;;;12.07;;
10957;SDS011;5531;42.570;23.676;2022-07-10T06:07:57;12.50;;;11.32;;
10957;SDS011;5531;42.570;23.676;2022-07-10T06:10:26;14.52;;;12.35;;
10957;SDS011;5531;42.570;23.676;2022-07-10T06:12:56;13.73;;;12.43;;
10957;SDS011;5531;42.570;23.676;2022-07-10T06:15:25;13.20;;;11.90;;
10957;SDS011;5531;42.570;23.676;2022-07-10T06:17:58;14.65;;;13.20;;
10957;SDS011;5531;42.570;23.676;2022-07-10T06:20:27;14.90;;;13.60;;
10957;SDS011;5531;42.570;23.676;2022-07-10T06:22:56;13.55;;;12.25;;
10957;SDS011;5531;42.570;23.676;2022-07-10T06:25:26;13.95;;;12.38;;
10957;SDS011;5531;42.570;23.676;2022-07-10T06:27:56;12.43;;;11.23;;
10957;SDS011;5531;42.570;23.676;2022-07-10T06:30:25;12.45;;;11.20;;
10957;SDS011;5531;42.570;23.676;2022-07-10T06:32:54;12.40;;;11.20;;
10957;SDS011;5531;42.570;23.676;2022-07-10T06:35:26;12.10;;;11.00;;
10957;SDS011;5531;42.570;23.676;2022-07-10T06:37:55;10.80;;;9.73;;
10957;SDS011;5531;42.570;23.676;2022-07-10T06:40:25;10.93;;;9.90;;
10957;SDS011;5531;42.570;23.676;2022-07-10T06:42:56;10.45;;;9.55;;
10957;SDS011;5531;42.570;23.676;2022-07-10T06:45:26;11.13;;;10.13;;
10957;SDS011;5531;42.570;23.676;2022-07-10T06:47:55;9.75;;;8.85;;
10957;SDS011;5531;42.570;23.676;2022-07-10T06:50:27;10.02;;;9.15;;
10957;SDS011;5531;42.570;23.676;2022-07-10T06:52:59;10.40;;;8.73;;
10957;SDS011;5531;42.570;23.676;2022-07-10T06:55:30;10.55;;;9.55;;
10957;SDS011;5531;42.570;23.676;2022-07-10T06:58:00;10.45;;;9.55;;
10957;SDS011;5531;42.570;23.676;2022-07-10T07:00:30;9.13;;;8.07;;
10957;SDS011;5531;42.570;23.676;2022-07-10T07:02:59;9.10;;;8.00;;
10957;SDS011;5531;42.570;23.676;2022-07-10T07:05:31;8.60;;;7.78;;
10957;SDS011;5531;42.570;23.676;2022-07-10T07:08:00;8.38;;;7.68;;
10957;SDS011;5531;42.570;23.676;2022-07-10T07:10:30;9.05;;;8.25;;
10957;SDS011;5531;42.570;23.676;2022-07-10T07:12:59;8.73;;;7.63;;
10957;SDS011;5531;42.570;23.676;2022-07-10T07:15:28;7.97;;;7.15;;
10957;SDS011;5531;42.570;23.676;2022-07-10T07:18:01;8.02;;;7.30;;
10957;SDS011;5531;42.570;23.676;2022-07-10T07:20:40;8.00;;;7.30;;
10957;SDS011;5531;42.570;23.676;2022-07-10T07:23:21;7.70;;;6.68;;
10957;SDS011;5531;42.570;23.676;2022-07-10T07:25:52;7.22;;;6.53;;
10957;SDS011;5531;42.570;23.676;2022-07-10T07:28:21;8.27;;;7.57;;
10957;SDS011;5531;42.570;23.676;2022-07-10T07:30:50;9.75;;;7.53;;
10957;SDS011;5531;42.570;23.676;2022-07-10T07:33:19;8.10;;;7.40;;
10957;SDS011;5531;42.570;23.676;2022-07-10T07:35:51;8.23;;;7.43;;
10957;SDS011;5531;42.570;23.676;2022-07-10T07:38:21;8.40;;;7.70;;
10957;SDS011;5531;42.570;23.676;2022-07-10T07:40:50;7.90;;;7.15;;
10957;SDS011;5531;42.570;23.676;2022-07-10T07:43:19;8.27;;;7.30;;
10957;SDS011;5531;42.570;23.676;2022-07-10T07:45:48;7.95;;;7.25;;
10957;SDS011;5531;42.570;23.676;2022-07-10T07:48:18;8.00;;;7.30;;
10957;SDS011;5531;42.570;23.676;2022-07-10T07:50:47;8.50;;;7.80;;
10957;SDS011;5531;42.570;23.676;2022-07-10T07:53:19;7.93;;;7.15;;
10957;SDS011;5531;42.570;23.676;2022-07-10T07:55:48;8.23;;;7.43;;
10957;SDS011;5531;42.570;23.676;2022-07-10T07:58:18;7.95;;;7.15;;
10957;SDS011;5531;42.570;23.676;2022-07-10T08:00:47;7.68;;;6.85;;
10957;SDS011;5531;42.570;23.676;2022-07-10T08:03:17;7.80;;;6.90;;
10957;SDS011;5531;42.570;23.676;2022-07-10T08:05:47;7.05;;;6.50;;
10957;SDS011;5531;42.570;23.676;2022-07-10T08:08:20;6.68;;;6.07;;
10957;SDS011;5531;42.570;23.676;2022-07-10T08:10:49;8.90;;;6.50;;
10957;SDS011;5531;42.570;23.676;2022-07-10T08:13:18;6.80;;;6.10;;
10957;SDS011;5531;42.570;23.676;2022-07-10T08:15:48;6.32;;;5.82;;
10957;SDS011;5531;42.570;23.676;2022-07-10T08:18:17;6.40;;;5.82;;
10957;SDS011;5531;42.570;23.676;2022-07-10T08:20:47;6.65;;;6.00;;
10957;SDS011;5531;42.570;23.676;2022-07-10T08:23:19;6.63;;;6.05;;
10957;SDS011;5531;42.570;23.676;2022-07-10T08:25:48;7.45;;;6.03;;
10957;SDS011;5531;42.570;23.676;2022-07-10T08:28:17;6.88;;;6.22;;
10957;SDS011;5531;42.570;23.676;2022-07-10T08:30:46;7.38;;;5.90;;
10957;SDS011;5531;42.570;23.676;2022-07-10T08:33:15;6.32;;;5.70;;
10957;SDS011;5531;42.570;23.676;2022-07-10T08:35:45;6.88;;;6.18;;
10957;SDS011;5531;42.570;23.676;2022-07-10T08:38:15;5.90;;;5.40;;
10957;SDS011;5531;42.570;23.676;2022-07-10T08:40:47;5.45;;;4.95;;
10957;SDS011;5531;42.570;23.676;2022-07-10T08:43:16;5.90;;;5.40;;
10957;SDS011;5531;42.570;23.676;2022-07-10T08:45:45;7.18;;;4.68;;
10957;SDS011;5531;42.570;23.676;2022-07-10T08:48:21;5.75;;;4.35;;
10957;SDS011;5531;42.570;23.676;2022-07-10T08:50:52;5.25;;;4.70;;
10957;SDS011;5531;42.570;23.676;2022-07-10T08:53:24;4.93;;;4.43;;
10957;SDS011;5531;42.570;23.676;2022-07-10T08:56:01;4.78;;;4.38;;
10957;SDS011;5531;42.570;23.676;2022-07-10T08:58:31;4.97;;;4.57;;
10957;SDS011;5531;42.570;23.676;2022-07-10T09:01:02;4.78;;;4.38;;
10957;SDS011;5531;42.570;23.676;2022-07-10T09:03:31;4.78;;;4.30;;
10957;SDS011;5531;42.570;23.676;2022-07-10T09:06:02;4.90;;;3.97;;
10957;SDS011;5531;42.570;23.676;2022-07-10T09:08:32;4.57;;;4.18;;
10957;SDS011;5531;42.570;23.676;2022-07-10T09:13:55;5.05;;;4.40;;
10957;SDS011;5531;42.570;23.676;2022-07-10T09:16:26;5.05;;;4.55;;
10957;SDS011;5531;42.570;23.676;2022-07-10T09:18:56;5.28;;;4.07;;
10957;SDS011;5531;42.570;23.676;2022-07-10T09:21:42;4.47;;;4.00;;
10957;SDS011;5531;42.570;23.676;2022-07-10T09:24:12;4.30;;;3.90;;
10957;SDS011;5531;42.570;23.676;2022-07-10T09:26:48;4.45;;;4.15;;
10957;SDS011;5531;42.570;23.676;2022-07-10T09:29:29;4.38;;;3.97;;
10957;SDS011;5531;42.570;23.676;2022-07-10T09:32:00;3.95;;;3.58;;
10957;SDS011;5531;42.570;23.676;2022-07-10T09:34:37;4.05;;;3.65;;
10957;SDS011;5531;42.570;23.676;2022-07-10T09:37:24;4.35;;;3.95;;
10957;SDS011;5531;42.570;23.676;2022-07-10T09:39:58;4.10;;;3.70;;
10957;SDS011;5531;42.570;23.676;2022-07-10T09:42:32;4.05;;;3.45;;
10957;SDS011;5531;42.570;23.676;2022-07-10T09:47:57;3.90;;;3.60;;
10957;SDS011;5531;42.570;23.676;2022-07-10T09:50:30;3.55;;;3.20;;
10957;SDS011;5531;42.570;23.676;2022-07-10T09:53:01;4.03;;;3.40;;
10957;SDS011;5531;42.570;23.676;2022-07-10T09:55:33;3.95;;;3.60;;
10957;SDS011;5531;42.570;23.676;2022-07-10T09:58:06;4.97;;;3.47;;
10957;SDS011;5531;42.570;23.676;2022-07-10T10:00:37;3.58;;;3.28;;
10957;SDS011;5531;42.570;23.676;2022-07-10T10:03:11;3.80;;;3.50;;
10957;SDS011;5531;42.570;23.676;2022-07-10T10:05:44;7.07;;;3.60;;
10957;SDS011;5531;42.570;23.676;2022-07-10T10:08:21;4.07;;;3.67;;
10957;SDS011;5531;42.570;23.676;2022-07-10T10:10:56;3.80;;;3.50;;
10957;SDS011;5531;42.570;23.676;2022-07-10T10:13:29;4.05;;;3.65;;
10957;SDS011;5531;42.570;23.676;2022-07-10T10:15:58;3.90;;;3.60;;
10957;SDS011;5531;42.570;23.676;2022-07-10T10:18:28;4.20;;;3.55;;
10957;SDS011;5531;42.570;23.676;2022-07-10T10:20:58;4.68;;;3.53;;
10957;SDS011;5531;42.570;23.676;2022-07-10T10:23:24;3.80;;;3.50;;
10957;SDS011;5531;42.570;23.676;2022-07-10T10:25:54;6.00;;;3.58;;
10957;SDS011;5531;42.570;23.676;2022-07-10T10:28:24;4.40;;;3.75;;
10957;SDS011;5531;42.570;23.676;2022-07-10T10:30:57;4.65;;;3.95;;
10957;SDS011;5531;42.570;23.676;2022-07-10T10:33:41;4.18;;;3.70;;
10957;SDS011;5531;42.570;23.676;2022-07-10T10:36:14;4.40;;;3.80;;
10957;SDS011;5531;42.570;23.676;2022-07-10T10:39:09;4.03;;;3.72;;
10957;SDS011;5531;42.570;23.676;2022-07-10T10:41:40;4.30;;;3.90;;
10957;SDS011;5531;42.570;23.676;2022-07-10T10:47:00;3.97;;;3.67;;
10957;SDS011;5531;42.570;23.676;2022-07-10T10:49:47;4.00;;;3.70;;
10957;SDS011;5531;42.570;23.676;2022-07-10T10:52:21;4.05;;;3.75;;
10957;SDS011;5531;42.570;23.676;2022-07-10T10:55:07;4.13;;;3.83;;
10957;SDS011;5531;42.570;23.676;2022-07-10T10:57:38;3.83;;;3.55;;
10957;SDS011;5531;42.570;23.676;2022-07-10T11:00:29;4.75;;;3.50;;
10957;SDS011;5531;42.570;23.676;2022-07-10T11:05:50;4.68;;;3.85;;
10957;SDS011;5531;42.570;23.676;2022-07-10T11:14:10;4.10;;;3.70;;
10957;SDS011;5531;42.570;23.676;2022-07-10T11:16:46;3.83;;;3.50;;
10957;SDS011;5531;42.570;23.676;2022-07-10T11:19:23;4.13;;;3.58;;
10957;SDS011;5531;42.570;23.676;2022-07-10T11:25:03;5.35;;;3.22;;
10957;SDS011;5531;42.570;23.676;2022-07-10T11:27:52;3.42;;;3.00;;
10957;SDS011;5531;42.570;23.676;2022-07-10T11:30:43;3.60;;;3.30;;
10957;SDS011;5531;42.570;23.676;2022-07-10T11:33:18;3.13;;;2.90;;
10957;SDS011;5531;42.570;23.676;2022-07-10T11:35:52;3.95;;;3.10;;
10957;SDS011;5531;42.570;23.676;2022-07-10T11:38:22;3.67;;;3.00;;
10957;SDS011;5531;42.570;23.676;2022-07-10T11:40:52;4.50;;;3.30;;
10957;SDS011;5531;42.570;23.676;2022-07-10T11:43:22;3.53;;;3.22;;
10957;SDS011;5531;42.570;23.676;2022-07-10T11:45:52;3.50;;;3.20;;
10957;SDS011;5531;42.570;23.676;2022-07-10T11:48:26;3.88;;;3.40;;
10957;SDS011;5531;42.570;23.676;2022-07-10T11:50:58;4.60;;;3.13;;
10957;SDS011;5531;42.570;23.676;2022-07-10T11:53:28;3.17;;;2.90;;
10957;SDS011;5531;42.570;23.676;2022-07-10T11:55:57;4.20;;;3.00;;
10957;SDS011;5531;42.570;23.676;2022-07-10T11:58:26;5.30;;;3.13;;
10957;SDS011;5531;42.570;23.676;2022-07-10T12:00:59;4.30;;;3.50;;
10957;SDS011;5531;42.570;23.676;2022-07-10T12:03:32;4.03;;;3.55;;
10957;SDS011;5531;42.570;23.676;2022-07-10T12:06:05;3.55;;;3.25;;
10957;SDS011;5531;42.570;23.676;2022-07-10T12:08:42;3.20;;;2.90;;
10957;SDS011;5531;42.570;23.676;2022-07-10T12:11:12;3.30;;;3.00;;
10957;SDS011;5531;42.570;23.676;2022-07-10T12:13:43;3.00;;;2.70;;
10957;SDS011;5531;42.570;23.676;2022-07-10T12:16:13;3.38;;;2.80;;
10957;SDS011;5531;42.570;23.676;2022-07-10T12:18:43;4.15;;;3.03;;
10957;SDS011;5531;42.570;23.676;2022-07-10T12:21:16;3.13;;;2.83;;
10957;SDS011;5531;42.570;23.676;2022-07-10T12:23:45;3.42;;;2.90;;
10957;SDS011;5531;42.570;23.676;2022-07-10T12:26:16;4.10;;;2.88;;
10957;SDS011;5531;42.570;23.676;2022-07-10T12:28:52;5.40;;;2.80;;
10957;SDS011;5531;42.570;23.676;2022-07-10T12:31:23;2.90;;;2.63;;
10957;SDS011;5531;42.570;23.676;2022-07-10T12:33:54;3.92;;;2.97;;
10957;SDS011;5531;42.570;23.676;2022-07-10T12:36:31;4.30;;;2.90;;
10957;SDS011;5531;42.570;23.676;2022-07-10T12:39:11;3.17;;;2.85;;
10957;SDS011;5531;42.570;23.676;2022-07-10T12:41:54;3.60;;;3.30;;
10957;SDS011;5531;42.570;23.676;2022-07-10T12:44:31;2.78;;;2.58;;
10957;SDS011;5531;42.570;23.676;2022-07-10T12:47:02;2.95;;;2.60;;
10957;SDS011;5531;42.570;23.676;2022-07-10T12:52:24;3.63;;;2.92;;
10957;SDS011;5531;42.570;23.676;2022-07-10T12:55:10;4.38;;;2.75;;
10957;SDS011;5531;42.570;23.676;2022-07-10T12:57:45;3.03;;;2.72;;
10957;SDS011;5531;42.570;23.676;2022-07-10T13:00:16;3.85;;;2.83;;
10957;SDS011;5531;42.570;23.676;2022-07-10T13:02:47;3.20;;;2.92;;
10957;SDS011;5531;42.570;23.676;2022-07-10T13:05:26;3.13;;;2.83;;
10957;SDS011;5531;42.570;23.676;2022-07-10T13:08:08;4.43;;;3.05;;
10957;SDS011;5531;42.570;23.676;2022-07-10T13:10:41;2.92;;;2.50;;
10957;SDS011;5531;42.570;23.676;2022-07-10T13:13:11;3.15;;;2.83;;
10957;SDS011;5531;42.570;23.676;2022-07-10T13:15:40;2.85;;;2.58;;
10957;SDS011;5531;42.570;23.676;2022-07-10T13:18:15;3.70;;;2.50;;
10957;SDS011;5531;42.570;23.676;2022-07-10T13:20:47;3.00;;;2.70;;
10957;SDS011;5531;42.570;23.676;2022-07-10T13:23:19;2.60;;;2.40;;
10957;SDS011;5531;42.570;23.676;2022-07-10T13:25:50;3.10;;;2.50;;
10957;SDS011;5531;42.570;23.676;2022-07-10T13:28:20;3.10;;;2.80;;
10957;SDS011;5531;42.570;23.676;2022-07-10T13:30:50;3.60;;;2.70;;
10957;SDS011;5531;42.570;23.676;2022-07-10T13:33:19;3.47;;;2.33;;
10957;SDS011;5531;42.570;23.676;2022-07-10T13:35:49;2.53;;;2.33;;
10957;SDS011;5531;42.570;23.676;2022-07-10T13:38:22;2.40;;;2.20;;
10957;SDS011;5531;42.570;23.676;2022-07-10T13:40:51;2.72;;;2.25;;
10957;SDS011;5531;42.570;23.676;2022-07-10T13:43:20;3.67;;;2.50;;
10957;SDS011;5531;42.570;23.676;2022-07-10T13:45:56;2.90;;;2.10;;
10957;SDS011;5531;42.570;23.676;2022-07-10T13:48:25;2.80;;;2.30;;
10957;SDS011;5531;42.570;23.676;2022-07-10T13:50:55;2.53;;;2.33;;
10957;SDS011;5531;42.570;23.676;2022-07-10T13:53:27;3.47;;;2.60;;
10957;SDS011;5531;42.570;23.676;2022-07-10T13:55:56;4.03;;;2.78;;
10957;SDS011;5531;42.570;23.676;2022-07-10T13:58:26;2.95;;;2.75;;
10957;SDS011;5531;42.570;23.676;2022-07-10T14:00:56;4.00;;;2.20;;
10957;SDS011;5531;42.570;23.676;2022-07-10T14:03:26;2.85;;;2.30;;
10957;SDS011;5531;42.570;23.676;2022-07-10T14:05:56;4.82;;;2.80;;
10957;SDS011;5531;42.570;23.676;2022-07-10T14:08:27;2.75;;;2.45;;
10957;SDS011;5531;42.570;23.676;2022-07-10T14:10:57;3.30;;;2.63;;
10957;SDS011;5531;42.570;23.676;2022-07-10T14:13:26;2.65;;;2.45;;
10957;SDS011;5531;42.570;23.676;2022-07-10T14:15:55;3.38;;;2.50;;
10957;SDS011;5531;42.570;23.676;2022-07-10T14:18:26;2.70;;;2.50;;
10957;SDS011;5531;42.570;23.676;2022-07-10T14:21:08;6.57;;;2.60;;
10957;SDS011;5531;42.570;23.676;2022-07-10T14:23:41;3.55;;;2.30;;
10957;SDS011;5531;42.570;23.676;2022-07-10T14:26:11;3.75;;;2.42;;
10957;SDS011;5531;42.570;23.676;2022-07-10T14:28:41;2.42;;;2.22;;
10957;SDS011;5531;42.570;23.676;2022-07-10T14:31:11;2.58;;;2.38;;
10957;SDS011;5531;42.570;23.676;2022-07-10T14:33:40;2.72;;;2.10;;
10957;SDS011;5531;42.570;23.676;2022-07-10T14:36:09;2.40;;;2.20;;
10957;SDS011;5531;42.570;23.676;2022-07-10T14:38:41;2.70;;;2.33;;
10957;SDS011;5531;42.570;23.676;2022-07-10T14:41:11;2.55;;;2.20;;
10957;SDS011;5531;42.570;23.676;2022-07-10T14:43:40;3.75;;;2.25;;
10957;SDS011;5531;42.570;23.676;2022-07-10T14:46:09;2.60;;;2.03;;
10957;SDS011;5531;42.570;23.676;2022-07-10T14:48:39;2.60;;;2.20;;
10957;SDS011;5531;42.570;23.676;2022-07-10T14:51:08;3.22;;;2.10;;
10957;SDS011;5531;42.570;23.676;2022-07-10T14:53:37;2.20;;;2.00;;
10957;SDS011;5531;42.570;23.676;2022-07-10T14:56:11;3.17;;;1.92;;
10957;SDS011;5531;42.570;23.676;2022-07-10T14:58:41;3.00;;;1.92;;
10957;SDS011;5531;42.570;23.676;2022-07-10T15:01:10;2.42;;;2.10;;
10957;SDS011;5531;42.570;23.676;2022-07-10T15:03:39;2.72;;;1.90;;
10957;SDS011;5531;42.570;23.676;2022-07-10T15:06:09;2.97;;;1.67;;
10957;SDS011;5531;42.570;23.676;2022-07-10T15:08:38;1.58;;;1.48;;
10957;SDS011;5531;42.570;23.676;2022-07-10T15:11:07;2.35;;;1.60;;
10957;SDS011;5531;42.570;23.676;2022-07-10T15:13:39;3.08;;;1.60;;
10957;SDS011;5531;42.570;23.676;2022-07-10T15:16:08;2.90;;;1.60;;
10957;SDS011;5531;42.570;23.676;2022-07-10T15:18:37;2.78;;;1.52;;
10957;SDS011;5531;42.570;23.676;2022-07-10T15:21:07;4.10;;;1.60;;